Barney, ND (58008)

4:51 AM CST on January 16, 2017 (GMT -0600)
Between the fields | | Change Station

Elev 1047 ft 46.25 °N, 97.12 °W | Updated 17 seconds ago

Partly Cloudy
Partly Cloudy
11.2 °F
Feels Like 11 °F
N
3.0
Wind Variable Wind from NW

Today
High -- | Low -- °F
--% Chance of Precip.
Yesterday
High -- | Low -- °F
Precip. -- in
Pressure 30.11 in
Visibility 7.0 miles
Clouds Clear
Windchill 11 °F
Dew Point 7 °F
Humidity 85%
Rainfall 0.00 in
Snow Depth Not available.
8:05 AM 5:10 PM
Waning Gibbous, 82% visible
METAR KBWP 161035Z AUTO 09003KT 7SM CLR M14/M16 A3011 RMK AO1
Pressure 30.11 in
Visibility 7.0 miles
Clouds Clear
Windchill 11 °F
Dew Point 7 °F
Humidity 85%
Rainfall 0.00 in
Snow Depth Not available.
8:05 AM 5:10 PM
Waning Gibbous, 82% visible
METAR KBWP 161035Z AUTO 09003KT 7SM CLR M14/M16 A3011 RMK AO1

Get Your Daily Forecast Email!

Thanks for signing up!

Be on the lookout for a verification email in your inbox.

You'll start receiving the daily forecast at 8 AM.

×

10-Day Weather Forecast

Almanac

Astronomy

Jan. 16, 2017 Rise Set
Actual Time
Civil Twilight
Nautical Twilight
Astronomical Twilight
Moon
Length of Visible Light
Length of Day
Tomorrow will be .
, % of the Moon is Illuminated

Today's Extremes

State Highs State Lows

Community

WunderPhotos

Upload Photos

1,962,540 photos uploaded!

WunderBlog® & News

Nearby

Air Quality

  Air Quality AQ Index Pollutant
Not available.

Snow Depth

Station Depth Elevation

Earthquake Activity

City Distance Mag. Time & Date
Minimum magnitude displayed is 2.5.

Coastal Water Temperatures

Place Temperature

Stations

Nearby Weather Stations

Station Location Temp. Windchill Dew Point Humidity Wind Precip. Elev Updated Type
                   

Watches & Warnings

There are currently no watches in effect.